메인 페이지
METAR-TAF:

METAR-TAF

공항 :

커크월, 스코틀랜드

위도: 58-57N, 경도: 002-54W, 고도: 21m

현재 날씨관측

예보는 10분 전, 22:50시(UTC)에 발표되었습니다.
북서7kt
온도 13°C
습도 94%
기압 1002 hPa
시정: 2900m
강한비,

METAR: EGPA 202250Z AUTO 32007KT 2900 +RA BKN003/// OVC015/// 13/12 Q1002

시각: 00:00 (23:00 UTC)

예보

예보는 3 시간 1분 전, 19:59시(UTC)에 발표되었습니다.
예보 대상 시간: 20일 21시부터 21일 06시까지 (UTC)
북북서5kt
시정 10km 이상
고도 1500ft 상공 구름 많음
일시적
20일 21시부터 21일 04시까지 (UTC)
시정: 6000m
고도 800ft 상공 구름 많음
확률 30% :
일시적
20일 21시부터 21일 03시까지 (UTC)
시정: 3000m
고도 400ft 상공 구름 많음
강한비
전환 중
21일 03시부터 21일 06시까지 (UTC)
10kt

TAF: EGPA 201959Z 2021/2106 34005KT 9999 BKN015 TEMPO 2021/2104 6000 RA BKN008 PROB30 TEMPO 2021/2103 3000 +RA BKN004 BECMG 2103/2106 27010KT

4,000개 이상의 공항 관측 자료 및 예보 (METAR 및 TAF 보고).

지도상에서 검색 가능한 기상관측소가 노란 점과 빨간 점으로 표시되어 있습니다.

기상관측소 명을 보려면 표시 위로 마우스를 이동하세요.

날씨 관측과 예보를 보려면 클릭하세요.

지도 변경 : 확대하려면 엑스 표시가 있는 녹색 버튼, 축소하려면 빼기 표시가 있는 녹색 버튼, 다음 페이지의 지도를 보려면 녹색 화살표를 클릭하세요.


METAR-TAF: